Skip Navigation Links
NOAA logo - Click to go to the NOAA homepage
NOAA's National Weather Service
Alaska Aviation Weather Unit
  NWS logo - Click to go to the NWS homepage
Left Navbar Graphic     12 AKDT = 20 GMT

   
NOAA is celebrating 200 years of science, service, and stewardship. Visit the NOAA 200th celebration Web site to learn more.
USA.gov is the U.S. Government's official Web portal to all Federal, state and local government Web resources and services.
Facebook
NWS on Facebook

Important Change Regarding the AAWU Web Presence

 

Over the last several months, the AAWU has been working to navigate its webpages to a nationally supported server. Security, as well as other needs, have necessitated the change.  We have been given an extension for the site changeover while we diligently work at addressing feedback received. As of July 14, 2017, aawu.arh.noaa.gov will be discontinued. The new AAWU web address is weather.gov/aawu. It is now live and will run in-parallel with the old site until it is discontinued on July 14, 2017. Please continue to send any feedback or questions regarding the new webpages to nws.ar.aawu.webauthors@noaa.gov.  Thank you for your patience during this time of transition.
AAWU Home :: Display TAF Add Bookmark
TAF PASC 251913Z 2519/2618 03005KT P6SM OVC009
     FM252300 05008KT P6SM SCT005 OVC010
     FM260400 06007KT 2SM BR OVC005=
PASC 251416Z 00000KT 1SM R05/3000VP6000FT BR VV003 04/04 A2996=

SPECI PASC 251416Z 00000KT 1SM R05/3000VP6000FT BR VV003 04/04 A2996 RMK
     AO2 T00390039 $=

PASC 251418Z 00000KT 3SM R05/3000VP6000FT BR OVC003 04/04 A2996=

SPECI PASC 251418Z 00000KT 3SM R05/3000VP6000FT BR OVC003 04/04 A2996
     RMK AO2 T00390039 $=

METAR PASC 251453Z 24003KT 6SM BR OVC003 04/04 A2997=

METAR PASC 251553Z 00000KT 10SM OVC004 05/05 A2997=

PASC 251619Z 00000KT 10SM OVC005 05/05 A2997=

SPECI PASC 251619Z 00000KT 10SM OVC005 05/05 A2997 RMK AO2 T00500050=

METAR PASC 251653Z 00000KT 10SM OVC005 06/06 A2997=

METAR PASC 251753Z 00000KT 10SM OVC008 07/06 A2997=

METAR PASC 251853Z 03005KT 10SM OVC009 08/06 A2997=

PASC 251916Z 36003KT 10SM OVC010 08/06 A2997=

SPECI PASC 251916Z 36003KT 10SM OVC010 08/06 A2997 RMK AO2 T00780061=

METAR PASC 251953Z 03003KT 10SM OVC011 08/07 A2997=


NOAA's National Weather Service
Alaska Aviation Weather Unit
6930 Sand Lake Road
Anchorage, AK 99502-1845
Disclaimer
Credits
Glossary
Privacy Policy
About Us
Career Opportunities
Contact AAWU Internet Services Site last modified: April, 17th 2012